createdAt,value
2022-08-01T00:00:38.085Z,97986.00
2022-08-01T00:03:05.343Z,97985.19
2022-08-01T00:05:32.552Z,97992.94
2022-08-01T00:08:00.251Z,97974.78
2022-08-01T00:10:27.225Z,97984.41
2022-08-01T00:12:53.942Z,97991.00
2022-08-01T00:15:21.066Z,97981.69
2022-08-01T00:17:47.842Z,97994.22
2022-08-01T00:20:15.910Z,97997.19
2022-08-01T00:22:42.777Z,97988.91
2022-08-01T00:25:09.724Z,97996.13
2022-08-01T00:27:37.861Z,97993.72
2022-08-01T00:30:13.145Z,97990.00
2022-08-01T00:32:43.686Z,98007.84
2022-08-01T00:35:11.917Z,97999.03
2022-08-01T00:37:38.680Z,97995.84
2022-08-01T00:40:07.161Z,98002.50
2022-08-01T00:42:33.992Z,98000.91
2022-08-01T00:45:00.875Z,97998.50
2022-08-01T00:47:27.626Z,97997.97
2022-08-01T00:49:54.466Z,98006.75
2022-08-01T00:52:21.546Z,98010.50
2022-08-01T00:54:49.206Z,98006.25
2022-08-01T00:57:16.443Z,98013.69
2022-08-01T01:00:05.733Z,98003.25
2022-08-01T01:02:33.075Z,98015.25
2022-08-01T01:04:59.946Z,97993.13
2022-08-01T01:08:00.397Z,98005.66
2022-08-01T01:10:43.886Z,98005.09
2022-08-01T01:13:21.514Z,98013.66
2022-08-01T01:16:11.394Z,98010.47
2022-08-01T01:18:50.773Z,98010.44
2022-08-01T01:21:17.528Z,98015.78
2022-08-01T01:23:55.142Z,98003.25
2022-08-01T01:26:43.770Z,98006.19
2022-08-01T01:29:13.295Z,98007.50
2022-08-01T01:31:52.492Z,97993.91
2022-08-01T01:34:22.783Z,98010.16
2022-08-01T01:36:54.969Z,98010.94
2022-08-01T01:39:25.323Z,98009.84
2022-08-01T01:41:57.847Z,98014.38
2022-08-01T01:44:27.556Z,98029.56
2022-08-01T01:46:57.435Z,98027.47
2022-08-01T01:49:27.912Z,98023.72
2022-08-01T01:52:02.783Z,98023.22
2022-08-01T01:54:41.631Z,98018.69
2022-08-01T01:57:13.474Z,98026.38
2022-08-01T01:59:41.947Z,98019.16
2022-08-01T02:02:11.318Z,98036.47
2022-08-01T02:04:44.692Z,98035.66
2022-08-01T02:07:18.573Z,98030.59
2022-08-01T02:09:48.609Z,98031.41
2022-08-01T02:12:20.139Z,98029.28
2022-08-01T02:14:50.541Z,98043.69
2022-08-01T02:17:20.859Z,98034.34
2022-08-01T02:19:48.718Z,98041.28
2022-08-01T02:22:26.786Z,98042.84
2022-08-01T02:25:03.129Z,98056.41
2022-08-01T02:27:39.146Z,98055.63
2022-08-01T02:30:11.463Z,98050.81
2022-08-01T02:32:43.776Z,98056.19
2022-08-01T02:35:26.393Z,98058.03
2022-08-01T02:37:56.053Z,98063.84
2022-08-01T02:40:24.575Z,98066.22
2022-08-01T02:42:55.571Z,98069.41
2022-08-01T02:45:27.750Z,98053.94
2022-08-01T02:48:02.243Z,98065.09
2022-08-01T02:50:33.797Z,98065.91
2022-08-01T02:53:04.066Z,98066.16
2022-08-01T02:55:35.161Z,98059.78
2022-08-01T02:58:04.248Z,98063.47
2022-08-01T03:00:33.400Z,98069.88
2022-08-01T03:03:04.342Z,98059.69
2022-08-01T03:05:33.533Z,98064.44
2022-08-01T03:08:03.708Z,98069.19
2022-08-01T03:10:35.503Z,98064.59
2022-08-01T03:13:05.757Z,98070.19
2022-08-01T03:15:37.291Z,98066.41
2022-08-01T03:18:09.151Z,98058.38
2022-08-01T03:20:36.337Z,98064.22
2022-08-01T03:23:08.352Z,98067.38
2022-08-01T03:25:39.765Z,98069.50
2022-08-01T03:28:09.777Z,98075.13
2022-08-01T03:30:39.970Z,98072.19
2022-08-01T03:33:07.069Z,98070.31
2022-08-01T03:35:50.388Z,98078.31
2022-08-01T03:38:24.761Z,98075.44
2022-08-01T03:41:10.929Z,98074.63
2022-08-01T03:43:47.852Z,98073.28
2022-08-01T03:46:33.718Z,98073.50
2022-08-01T03:49:15.384Z,98071.63
2022-08-01T03:51:42.397Z,98069.47
2022-08-01T03:54:11.458Z,98075.25
2022-08-01T03:56:40.886Z,98080.56
2022-08-01T03:59:08.034Z,98085.56
2022-08-01T04:01:35.489Z,98090.34
2022-08-01T04:04:02.952Z,98086.34
2022-08-01T04:06:30.532Z,98089.28
2022-08-01T04:08:58.092Z,98081.66
2022-08-01T04:11:28.518Z,98079.81
2022-08-01T04:13:58.244Z,98080.72
2022-08-01T04:16:26.297Z,98087.41
2022-08-01T04:18:53.022Z,98090.38
2022-08-01T04:21:26.095Z,98081.25
2022-08-01T04:23:55.168Z,98085.50
2022-08-01T04:26:23.415Z,98101.50
2022-08-01T04:28:55.717Z,98107.66
2022-08-01T04:31:27.108Z,98110.13
2022-08-01T04:33:57.343Z,98115.75
2022-08-01T04:36:26.751Z,98120.03
2022-08-01T04:39:01.011Z,98116.31
2022-08-01T04:41:30.857Z,98111.31
2022-08-01T04:44:00.319Z,98125.75
2022-08-01T04:46:29.686Z,98133.75
2022-08-01T04:48:57.922Z,98123.63
2022-08-01T04:51:25.548Z,98122.09
2022-08-01T04:53:53.068Z,98129.59
2022-08-01T04:56:21.709Z,98120.00
2022-08-01T04:58:49.125Z,98130.66
2022-08-01T05:01:16.625Z,98124.25
2022-08-01T05:03:43.526Z,98134.69
2022-08-01T05:06:10.560Z,98143.25
2022-08-01T05:08:37.399Z,98146.19
2022-08-01T05:11:05.149Z,98147.03
2022-08-01T05:13:32.053Z,98142.22
2022-08-01T05:15:58.832Z,98153.19
2022-08-01T05:18:28.514Z,98149.19
2022-08-01T05:20:55.991Z,98141.78
2022-08-01T05:23:42.579Z,98151.06
2022-08-01T05:26:15.021Z,98152.69
2022-08-01T05:28:43.197Z,98154.91
2022-08-01T05:31:09.974Z,98150.63
2022-08-01T05:33:36.728Z,98152.25
2022-08-01T05:36:04.087Z,98157.63
2022-08-01T05:38:30.819Z,98155.50
2022-08-01T05:40:57.655Z,98152.31
2022-08-01T05:43:28.517Z,98153.91
2022-08-01T05:45:56.192Z,98149.91
2022-08-01T05:48:23.039Z,98152.88
2022-08-01T05:50:50.648Z,98154.75
2022-08-01T05:53:17.585Z,98153.44
2022-08-01T05:55:44.251Z,98143.81
2022-08-01T05:58:12.183Z,98149.16
2022-08-01T06:00:40.415Z,98145.44
2022-08-01T06:03:07.093Z,98150.50
2022-08-01T06:05:34.246Z,98151.00
2022-08-01T06:08:01.175Z,98156.06
2022-08-01T06:10:27.945Z,98159.25
2022-08-01T06:12:54.728Z,98154.44
2022-08-01T06:15:21.552Z,98166.69
2022-08-01T06:17:48.359Z,98166.16
2022-08-01T06:20:15.164Z,98168.56
2022-08-01T06:22:41.897Z,98169.88
2022-08-01T06:25:09.954Z,98168.00
2022-08-01T06:27:36.715Z,98173.59
2022-08-01T06:30:05.826Z,98165.31
2022-08-01T06:32:34.253Z,98179.75
2022-08-01T06:35:01.135Z,98176.56
2022-08-01T06:37:31.474Z,98180.88
2022-08-01T06:40:16.230Z,98183.00
2022-08-01T06:42:46.556Z,98181.13
2022-08-01T06:45:15.731Z,98180.09
2022-08-01T06:47:45.352Z,98177.38
2022-08-01T06:50:18.269Z,98193.91
2022-08-01T06:52:45.293Z,98180.56
2022-08-01T06:55:12.534Z,98186.97
2022-08-01T06:57:53.957Z,98190.44
2022-08-01T07:00:24.335Z,98185.09
2022-08-01T07:02:52.901Z,98181.81
2022-08-01T07:05:21.121Z,98191.44
2022-08-01T07:07:48.106Z,98193.59
2022-08-01T07:10:15.319Z,98195.22
2022-08-01T07:12:42.283Z,98192.53
2022-08-01T07:15:11.888Z,98193.81
2022-08-01T07:17:41.086Z,98187.94
2022-08-01T07:20:13.927Z,98195.66
2022-08-01T07:22:43.587Z,98200.94
2022-08-01T07:25:15.001Z,98188.66
2022-08-01T07:27:42.069Z,98196.41
2022-08-01T07:30:09.848Z,98196.78
2022-08-01T07:32:37.685Z,98198.19
2022-08-01T07:35:05.347Z,98191.19
2022-08-01T07:37:45.406Z,98197.84
2022-08-01T07:40:18.467Z,98184.91
2022-08-01T07:42:46.113Z,98185.91
2022-08-01T07:45:14.939Z,98194.31
2022-08-01T07:47:42.239Z,98188.22
2022-08-01T07:50:09.615Z,98205.25
2022-08-01T07:52:37.100Z,98197.63
2022-08-01T07:55:05.703Z,98190.59
2022-08-01T07:57:33.136Z,98194.94
2022-08-01T08:00:00.573Z,98185.34
2022-08-01T08:02:27.822Z,98191.00
2022-08-01T08:04:54.822Z,98188.31
2022-08-01T08:07:21.733Z,98187.91
2022-08-01T08:09:50.956Z,98182.03
2022-08-01T08:12:18.284Z,98180.44
2022-08-01T08:14:48.029Z,98192.97
2022-08-01T08:17:15.415Z,98191.47
2022-08-01T08:19:42.715Z,98188.97
2022-08-01T08:22:11.264Z,98196.03
2022-08-01T08:24:46.477Z,98193.50
2022-08-01T08:27:15.103Z,98198.31
2022-08-01T08:29:42.903Z,98190.59
2022-08-01T08:32:10.906Z,98170.63
2022-08-01T08:34:39.562Z,98189.38
2022-08-01T08:37:09.513Z,98191.94
2022-08-01T08:39:41.678Z,98183.72
2022-08-01T08:42:14.113Z,98178.34
2022-08-01T08:44:44.130Z,98191.28
2022-08-01T08:47:20.226Z,98186.03
2022-08-01T08:52:40.395Z,98187.81
2022-08-01T08:55:09.258Z,98179.94
2022-08-01T08:57:37.895Z,98190.75
2022-08-01T09:00:06.714Z,98175.34
2022-08-01T09:02:33.515Z,98178.75
2022-08-01T09:05:00.650Z,98190.13
2022-08-01T09:07:27.588Z,98186.09
2022-08-01T09:09:54.209Z,98185.47
2022-08-01T09:12:23.124Z,98188.75
2022-08-01T09:14:52.070Z,98188.25
2022-08-01T09:17:19.235Z,98184.16
2022-08-01T09:19:54.847Z,98192.94
2022-08-01T09:22:27.055Z,98178.44
2022-08-01T09:25:06.925Z,98184.81
2022-08-01T09:27:44.479Z,98177.72
2022-08-01T09:30:23.643Z,98179.31
2022-08-01T09:33:11.277Z,98181.63
2022-08-01T09:35:46.426Z,98181.66
2022-08-01T09:38:24.284Z,98190.31
2022-08-01T09:41:01.816Z,98194.75
2022-08-01T09:43:32.674Z,98187.03
2022-08-01T09:46:06.009Z,98194.78
2022-08-01T09:48:33.767Z,98192.97
2022-08-01T09:51:07.009Z,98188.31
2022-08-01T09:53:51.792Z,98189.41
2022-08-01T09:56:22.711Z,98181.88
2022-08-01T09:58:57.778Z,98185.41
2022-08-01T10:01:26.574Z,98185.78
2022-08-01T10:04:09.787Z,98170.75
2022-08-01T10:06:38.614Z,98168.38
2022-08-01T10:09:06.019Z,98174.06
2022-08-01T10:11:44.772Z,98163.72
2022-08-01T10:14:14.741Z,98166.41
2022-08-01T10:16:53.007Z,98171.09
2022-08-01T10:19:24.900Z,98168.50
2022-08-01T10:21:59.327Z,98158.94
2022-08-01T10:24:30.784Z,98166.91
2022-08-01T10:27:09.093Z,98165.72
2022-08-01T10:30:08.551Z,98174.63
2022-08-01T10:32:52.128Z,98153.56
2022-08-01T10:35:24.086Z,98161.34
2022-08-01T10:38:10.925Z,98149.75
2022-08-01T10:40:43.006Z,98161.78
2022-08-01T10:43:21.669Z,98153.03
2022-08-01T10:45:51.020Z,98148.84
2022-08-01T10:48:40.434Z,98161.94
2022-08-01T10:51:17.828Z,98158.16
2022-08-01T10:53:54.815Z,98166.72
2022-08-01T10:56:26.854Z,98165.13
2022-08-01T10:59:06.577Z,98153.03
2022-08-01T11:01:45.078Z,98165.38
2022-08-01T11:04:17.703Z,98169.38
2022-08-01T11:07:06.051Z,98171.38
2022-08-01T11:09:45.056Z,98164.81
2022-08-01T11:12:23.104Z,98172.16
2022-08-01T11:15:00.003Z,98167.97
2022-08-01T11:17:37.588Z,98148.06
2022-08-01T11:20:08.671Z,98164.19
2022-08-01T11:23:07.042Z,98165.75
2022-08-01T11:26:05.760Z,98161.28
2022-08-01T11:28:33.091Z,98153.44
2022-08-01T11:31:11.505Z,98165.19
2022-08-01T11:33:45.558Z,98166.13
2022-08-01T11:36:14.372Z,98158.94
2022-08-01T11:39:13.321Z,98152.72
2022-08-01T11:41:44.271Z,98152.63
2022-08-01T11:44:24.837Z,98156.16
2022-08-01T11:47:09.779Z,98155.88
2022-08-01T11:49:56.387Z,98162.44
2022-08-01T11:52:34.782Z,98159.31
2022-08-01T11:55:01.980Z,98151.56
2022-08-01T11:57:35.610Z,98161.69
2022-08-01T12:00:18.950Z,98163.97
2022-08-01T12:02:58.872Z,98154.16
2022-08-01T12:05:28.922Z,98154.00
2022-08-01T12:07:59.594Z,98152.78
2022-08-01T12:10:47.026Z,98152.25
2022-08-01T12:13:19.038Z,98154.06
2022-08-01T12:15:47.553Z,98152.66
2022-08-01T12:18:15.197Z,98137.13
2022-08-01T12:20:56.564Z,98139.59
2022-08-01T12:23:24.231Z,98136.59
2022-08-01T12:25:54.257Z,98138.97
2022-08-01T12:28:22.083Z,98128.91
2022-08-01T12:30:50.605Z,98137.22
2022-08-01T12:33:24.598Z,98133.81
2022-08-01T12:35:51.381Z,98123.53
2022-08-01T12:38:28.032Z,98138.31
2022-08-01T12:40:57.059Z,98126.41
2022-08-01T12:43:29.230Z,98124.31
2022-08-01T12:46:00.563Z,98125.94
2022-08-01T12:48:31.210Z,98125.91
2022-08-01T12:51:01.381Z,98113.44
2022-08-01T12:53:40.359Z,98122.94
2022-08-01T12:56:11.441Z,98113.19
2022-08-01T12:58:38.538Z,98120.94
2022-08-01T13:01:11.308Z,98118.44
2022-08-01T13:03:38.879Z,98112.94
2022-08-01T13:06:16.287Z,98110.25
2022-08-01T13:08:43.930Z,98116.09
2022-08-01T13:11:17.678Z,98111.53
2022-08-01T13:13:50.260Z,98113.25
2022-08-01T13:16:48.795Z,98116.47
2022-08-01T13:19:14.192Z,98113.72
2022-08-01T13:21:58.618Z,98110.72
2022-08-01T13:24:30.529Z,98096.75
2022-08-01T13:27:05.006Z,98094.22
2022-08-01T13:29:44.098Z,98093.59
2022-08-01T13:32:28.976Z,98089.09
2022-08-01T13:35:10.825Z,98098.19
2022-08-01T13:37:39.872Z,98091.13
2022-08-01T13:40:09.513Z,98090.03
2022-08-01T13:42:37.996Z,98083.97
2022-08-01T13:45:13.857Z,98085.31
2022-08-01T13:48:03.559Z,98083.69
2022-08-01T13:50:29.827Z,98077.84
2022-08-01T13:52:57.143Z,98080.81
2022-08-01T13:55:24.231Z,98087.28
2022-08-01T13:57:51.106Z,98085.19
2022-08-01T14:00:20.544Z,98084.06
2022-08-01T14:02:49.193Z,98093.41
2022-08-01T14:05:15.960Z,98087.88
2022-08-01T14:07:43.834Z,98075.09
2022-08-01T14:10:18.726Z,98078.41
2022-08-01T14:12:50.937Z,98088.38
2022-08-01T14:15:37.986Z,98075.00
2022-08-01T14:18:06.826Z,98069.88
2022-08-01T14:20:36.026Z,98078.84
2022-08-01T14:23:03.418Z,98062.84
2022-08-01T14:26:02.946Z,98086.69
2022-08-01T14:28:17.934Z,98086.56
2022-08-01T14:30:45.413Z,98095.81
2022-08-01T14:33:14.146Z,98080.97
2022-08-01T14:36:05.306Z,98091.25
2022-08-01T14:38:31.457Z,98088.19
2022-08-01T14:41:00.402Z,98095.94
2022-08-01T14:43:32.911Z,98100.56
2022-08-01T14:46:02.374Z,98105.97
2022-08-01T14:48:30.464Z,98095.66
2022-08-01T14:50:59.050Z,98102.16
2022-08-01T14:53:25.960Z,98112.78
2022-08-01T14:55:52.851Z,98105.63
2022-08-01T14:58:19.816Z,98102.47
2022-08-01T15:00:46.760Z,98102.94
2022-08-01T15:03:14.306Z,98095.91
2022-08-01T15:05:41.530Z,98096.66
2022-08-01T15:08:08.550Z,98108.75
2022-08-01T15:10:35.767Z,98091.50
2022-08-01T15:13:02.912Z,98103.28
2022-08-01T15:15:30.531Z,98096.13
2022-08-01T15:17:58.529Z,98084.69
2022-08-01T15:20:26.399Z,98103.59
2022-08-01T15:22:53.831Z,98092.47
2022-08-01T15:25:21.001Z,98103.91
2022-08-01T15:27:47.958Z,98104.69
2022-08-01T15:30:15.582Z,98095.44
2022-08-01T15:32:42.517Z,98093.50
2022-08-01T15:35:11.369Z,98095.22
2022-08-01T15:37:42.821Z,98099.84
2022-08-01T15:40:12.524Z,98109.78
2022-08-01T15:42:39.890Z,98107.88
2022-08-01T15:45:10.602Z,98103.28
2022-08-01T15:47:40.091Z,98103.59
2022-08-01T15:50:08.102Z,98099.59
2022-08-01T15:52:35.516Z,98100.25
2022-08-01T15:55:02.868Z,98111.34
2022-08-01T15:57:30.160Z,98111.63
2022-08-01T15:59:57.367Z,98105.09
2022-08-01T16:02:26.549Z,98101.06
2022-08-01T16:04:55.492Z,98103.75
2022-08-01T16:07:29.434Z,98094.56
2022-08-01T16:09:56.477Z,98088.50
2022-08-01T16:12:29.659Z,98093.47
2022-08-01T16:14:57.466Z,98096.03
2022-08-01T16:17:24.196Z,98082.94
2022-08-01T16:19:52.079Z,98079.28
2022-08-01T16:22:19.579Z,98084.38
2022-08-01T16:24:46.526Z,98094.22
2022-08-01T16:27:13.705Z,98084.06
2022-08-01T16:29:40.425Z,98072.44
2022-08-01T16:32:16.734Z,98080.00
2022-08-01T16:34:54.089Z,98080.75
2022-08-01T16:37:23.723Z,98087.53
2022-08-01T16:39:56.459Z,98092.50
2022-08-01T16:42:23.520Z,98075.34
2022-08-01T16:44:54.641Z,98098.03
2022-08-01T16:47:21.634Z,98085.50
2022-08-01T16:49:48.845Z,98085.13
2022-08-01T16:52:16.748Z,98084.78
2022-08-01T16:54:43.975Z,98092.91
2022-08-01T16:57:11.214Z,98082.19
2022-08-01T16:59:41.328Z,98089.56
2022-08-01T17:02:09.334Z,98091.38
2022-08-01T17:04:38.759Z,98093.06
2022-08-01T17:07:05.942Z,98093.34
2022-08-01T17:09:33.110Z,98088.25
2022-08-01T17:12:01.608Z,98091.59
2022-08-01T17:14:29.992Z,98100.97
2022-08-01T17:16:56.897Z,98095.50
2022-08-01T17:19:26.832Z,98089.88
2022-08-01T17:22:00.619Z,98090.06
2022-08-01T17:24:28.711Z,98084.50
2022-08-01T17:26:55.875Z,98101.38
2022-08-01T17:29:23.415Z,98092.69
2022-08-01T17:31:54.005Z,98089.50
2022-08-01T17:34:20.878Z,98088.50
2022-08-01T17:36:48.132Z,98085.75
2022-08-01T17:39:15.349Z,98087.25
2022-08-01T17:41:42.408Z,98085.47
2022-08-01T17:44:10.214Z,98099.09
2022-08-01T17:46:40.335Z,98102.09
2022-08-01T17:49:07.118Z,98109.16
2022-08-01T17:51:33.890Z,98110.56
2022-08-01T17:54:00.767Z,98103.25
2022-08-01T17:56:29.348Z,98123.56
2022-08-01T17:58:56.484Z,98116.13
2022-08-01T18:01:26.903Z,98112.41
2022-08-01T18:03:57.721Z,98126.63
2022-08-01T18:06:25.707Z,98120.75
2022-08-01T18:08:55.372Z,98120.84
2022-08-01T18:11:27.038Z,98139.72
2022-08-01T18:13:59.785Z,98127.47
2022-08-01T18:16:28.446Z,98134.13
2022-08-01T18:18:58.489Z,98129.44
2022-08-01T18:21:25.539Z,98135.78
2022-08-01T18:23:52.668Z,98125.44
2022-08-01T18:26:21.444Z,98146.09
2022-08-01T18:28:48.267Z,98144.28
2022-08-01T18:31:17.515Z,98143.00
2022-08-01T18:33:45.215Z,98137.72
2022-08-01T18:36:21.902Z,98134.16
2022-08-01T18:39:04.231Z,98149.97
2022-08-01T18:41:32.995Z,98150.91
2022-08-01T18:44:03.864Z,98151.25
2022-08-01T18:46:33.049Z,98148.44
2022-08-01T18:49:00.335Z,98140.53
2022-08-01T18:51:28.788Z,98155.53
2022-08-01T18:53:58.018Z,98158.63
2022-08-01T18:56:25.202Z,98157.06
2022-08-01T18:58:54.859Z,98146.22
2022-08-01T19:01:22.559Z,98151.19
2022-08-01T19:03:49.938Z,98152.03
2022-08-01T19:06:16.885Z,98149.72
2022-08-01T19:08:47.312Z,98161.72
2022-08-01T19:11:15.711Z,98157.84
2022-08-01T19:13:42.639Z,98165.56
2022-08-01T19:16:09.531Z,98169.16
2022-08-01T19:18:40.289Z,98177.78
2022-08-01T19:21:07.271Z,98181.56
2022-08-01T19:23:54.461Z,98182.69
2022-08-01T19:26:28.137Z,98183.81
2022-08-01T19:29:02.838Z,98193.44
2022-08-01T19:31:30.246Z,98186.50
2022-08-01T19:33:58.135Z,98189.31
2022-08-01T19:36:26.948Z,98186.63
2022-08-01T19:38:55.454Z,98195.50
2022-08-01T19:41:23.020Z,98188.31
2022-08-01T19:43:51.528Z,98193.19
2022-08-01T19:46:18.888Z,98186.78
2022-08-01T19:48:53.703Z,98175.09
2022-08-01T19:51:33.512Z,98190.84
2022-08-01T19:54:05.973Z,98195.47
2022-08-01T19:56:40.636Z,98183.19
2022-08-01T19:59:15.812Z,98188.25
2022-08-01T20:01:43.452Z,98199.19
2022-08-01T20:04:11.293Z,98198.44
2022-08-01T20:06:38.580Z,98200.53
2022-08-01T20:09:06.513Z,98195.50
2022-08-01T20:11:53.912Z,98190.97
2022-08-01T20:14:28.393Z,98188.88
2022-08-01T20:16:56.781Z,98181.97
2022-08-01T20:19:26.455Z,98189.72
2022-08-01T20:22:11.427Z,98190.00
2022-08-01T20:24:49.866Z,98194.84
2022-08-01T20:27:18.635Z,98192.69
2022-08-01T20:29:46.121Z,98185.50
2022-08-01T20:32:15.056Z,98186.09
2022-08-01T20:34:43.970Z,98189.84
2022-08-01T20:37:12.996Z,98198.91
2022-08-01T20:39:45.130Z,98192.22
2022-08-01T20:42:14.883Z,98181.84
2022-08-01T20:44:43.461Z,98181.81
2022-08-01T20:47:11.085Z,98192.00
2022-08-01T20:49:38.750Z,98200.56
2022-08-01T20:52:11.232Z,98202.56
2022-08-01T20:54:39.762Z,98214.06
2022-08-01T20:57:17.043Z,98212.53
2022-08-01T20:59:55.773Z,98196.03
2022-08-01T21:02:45.662Z,98214.44
2022-08-01T21:05:12.913Z,98221.94
2022-08-01T21:07:52.181Z,98226.50
2022-08-01T21:10:23.817Z,98223.28
2022-08-01T21:13:06.694Z,98234.22
2022-08-01T21:16:22.987Z,98233.41
2022-08-01T21:19:19.798Z,98238.47
2022-08-01T21:22:10.958Z,98238.47
2022-08-01T21:24:58.665Z,98243.56
2022-08-01T21:27:33.561Z,98243.03
2022-08-01T21:30:09.335Z,98252.66
2022-08-01T21:32:38.402Z,98245.69
2022-08-01T21:35:15.899Z,98256.09
2022-08-01T21:37:52.030Z,98252.91
2022-08-01T21:40:23.063Z,98262.25
2022-08-01T21:42:54.041Z,98268.41
2022-08-01T21:45:25.579Z,98273.75
2022-08-01T21:47:53.688Z,98263.06
2022-08-01T21:50:21.741Z,98275.06
2022-08-01T21:53:02.450Z,98270.00
2022-08-01T21:56:01.571Z,98267.63
2022-08-01T21:59:14.894Z,98277.22
2022-08-01T22:02:00.170Z,98268.16
2022-08-01T22:05:04.717Z,98265.22
2022-08-01T22:07:41.470Z,98260.16
2022-08-01T22:10:12.894Z,98258.00
2022-08-01T22:12:40.154Z,98263.34
2022-08-01T22:15:08.368Z,98274.00
2022-08-01T22:17:35.917Z,98263.81
2022-08-01T22:20:02.704Z,98264.84
2022-08-01T22:22:45.449Z,98264.34
2022-08-01T22:25:19.118Z,98268.56
2022-08-01T22:28:02.803Z,98280.81
2022-08-01T22:30:41.984Z,98275.69
2022-08-01T22:33:16.399Z,98263.09
2022-08-01T22:35:48.578Z,98264.38
2022-08-01T22:38:19.509Z,98278.78
2022-08-01T22:41:13.096Z,98277.34
2022-08-01T22:44:08.219Z,98282.03
2022-08-01T22:46:43.538Z,98268.59
2022-08-01T22:50:07.364Z,98282.66
2022-08-01T22:52:49.760Z,98283.47
2022-08-01T22:55:21.875Z,98282.63
2022-08-01T22:57:59.864Z,98277.78
2022-08-01T23:00:31.744Z,98277.63
2022-08-01T23:03:19.054Z,98275.44
2022-08-01T23:06:11.555Z,98281.88
2022-08-01T23:08:44.150Z,98264.19
2022-08-01T23:11:13.318Z,98275.25
2022-08-01T23:13:41.895Z,98273.22
2022-08-01T23:16:11.678Z,98271.38
2022-08-01T23:18:46.048Z,98268.34
2022-08-01T23:21:16.884Z,98278.63
2022-08-01T23:23:47.121Z,98273.66
2022-08-01T23:26:15.548Z,98281.66
2022-08-01T23:28:44.538Z,98271.53
2022-08-01T23:31:13.707Z,98281.47
2022-08-01T23:33:41.557Z,98270.75
2022-08-01T23:36:08.905Z,98287.28
2022-08-01T23:38:35.771Z,98276.34
2022-08-01T23:41:03.138Z,98285.44
2022-08-01T23:43:30.445Z,98283.09
2022-08-01T23:46:03.521Z,98276.13
2022-08-01T23:48:37.232Z,98281.50
2022-08-01T23:51:06.750Z,98271.41
2022-08-01T23:53:38.410Z,98263.38
2022-08-01T23:56:06.267Z,98260.47
2022-08-01T23:58:33.299Z,98267.44
